Time;durP1;ratioP1;P1;durP2;ratioP2;P2;SDS_P1;SDS_P2;PMS_P1;PMS_P2;Temp;Humidity;BMP_temperature;BMP_pressure;BME280_temperature;BME280_humidity;BME280_pressure;Samples;Min_cycle;Max_cycle;Signal;HPM_P1;HPM_P2
2022/12/08 00:01:37;;;;;;;7.72;4.93;;;5.20;88.40;;;;;;5074433;28;20025;-28
2022/12/08 00:04:04;;;;;;;6.70;4.78;;;5.20;88.30;;;;;;5074000;28;20037;-27
2022/12/08 00:09:31;;;;;;;6.38;5.05;;;5.20;88.40;;;;;;5074088;28;20126;-29
2022/12/08 00:11:58;;;;;;;6.82;4.80;;;5.20;88.40;;;;;;5074301;28;20120;-32
2022/12/08 00:14:30;;;;;;;7.30;4.93;;;5.20;88.40;;;;;;5074248;28;20108;-28
2022/12/08 00:16:56;;;;;;;7.10;4.75;;;5.20;88.40;;;;;;5073765;28;20042;-29
2022/12/08 00:19:23;;;;;;;5.47;4.88;;;5.20;88.40;;;;;;5073921;28;20134;-33
2022/12/08 00:21:49;;;;;;;7.15;4.70;;;5.20;88.30;;;;;;5074073;28;20028;-27
2022/12/08 00:24:15;;;;;;;5.75;5.00;;;5.30;88.30;;;;;;5073632;28;20032;-28
2022/12/08 00:26:40;;;;;;;8.27;5.30;;;5.30;88.30;;;;;;5073916;28;20043;-26
2022/12/08 00:29:07;;;;;;;6.63;5.25;;;5.30;88.20;;;;;;5073637;28;20392;-31
2022/12/08 00:31:32;;;;;;;7.50;5.03;;;5.30;88.20;;;;;;5073581;28;20040;-30
2022/12/08 00:33:58;;;;;;;10.18;5.22;;;5.30;88.20;;;;;;5073787;28;20077;-27
2022/12/08 00:36:24;;;;;;;8.75;5.95;;;5.20;88.20;;;;;;5073547;28;20028;-28
2022/12/08 00:38:50;;;;;;;8.85;6.13;;;5.20;88.30;;;;;;5073676;28;20377;-31
2022/12/08 00:42:10;;;;;;;7.57;5.63;;;5.20;88.40;;;;;;5073683;28;20039;-26
2022/12/08 00:44:04;;;;;;;7.00;5.45;;;5.20;88.40;;;;;;5073103;28;20040;-27
2022/12/08 00:46:30;;;;;;;5.70;4.65;;;5.20;88.40;;;;;;5073348;28;20051;-27
2022/12/08 00:48:55;;;;;;;9.95;5.28;;;5.20;88.50;;;;;;5073431;28;20025;-32
2022/12/08 00:51:21;;;;;;;6.75;4.85;;;5.20;88.50;;;;;;5073283;28;20017;-30
2022/12/08 00:53:46;;;;;;;7.95;4.63;;;5.20;88.60;;;;;;5073166;28;20033;-29
2022/12/08 00:56:12;;;;;;;5.55;4.25;;;5.20;88.50;;;;;;5073123;28;20056;-27
2022/12/08 00:58:37;;;;;;;5.32;4.03;;;5.20;88.50;;;;;;5073128;28;20069;-28
2022/12/08 01:01:09;;;;;;;4.40;4.00;;;5.30;88.60;;;;;;5073046;28;20496;-27
2022/12/08 01:03:35;;;;;;;5.97;4.03;;;5.30;88.50;;;;;;5072908;28;20036;-27
2022/12/08 01:06:05;;;;;;;5.80;4.10;;;5.30;88.40;;;;;;5072763;28;20025;-27
2022/12/08 01:08:31;;;;;;;5.35;4.03;;;5.40;88.40;;;;;;5072816;28;20066;-27
2022/12/08 01:11:22;;;;;;;5.38;3.60;;;5.40;88.30;;;;;;5073075;28;20113;-27
2022/12/08 01:13:47;;;;;;;4.20;3.80;;;5.40;88.30;;;;;;5072292;28;20382;-28
2022/12/08 01:16:33;;;;;;;5.75;4.28;;;5.40;88.20;;;;;;5072706;28;20036;-28
2022/12/08 01:18:59;;;;;;;5.88;4.05;;;5.50;88.20;;;;;;5072981;28;20119;-27
2022/12/08 01:21:26;;;;;;;4.28;3.88;;;5.40;88.10;;;;;;5072596;28;20573;-26
2022/12/08 01:23:51;;;;;;;4.70;3.75;;;5.40;88.20;;;;;;5072797;28;20372;-29
2022/12/08 01:26:18;;;;;;;5.85;4.20;;;5.40;88.20;;;;;;5072507;28;20028;-28
2022/12/08 01:28:44;;;;;;;7.43;3.70;;;5.40;88.20;;;;;;5071732;28;20056;-38
2022/12/08 01:31:21;;;;;;;6.72;4.00;;;5.40;88.30;;;;;;5054441;28;20024;-28
2022/12/08 01:33:47;;;;;;;4.22;3.58;;;5.50;88.30;;;;;;5072403;28;20082;-29
2022/12/08 01:36:18;;;;;;;4.75;4.10;;;5.40;88.30;;;;;;5072425;28;20055;-27
2022/12/08 01:38:44;;;;;;;4.65;3.67;;;5.50;88.30;;;;;;5072383;28;20032;-27
2022/12/08 01:41:17;;;;;;;6.65;3.80;;;5.50;88.40;;;;;;5072102;28;20044;-27
2022/12/08 01:44:07;;;;;;;5.78;4.30;;;5.50;88.40;;;;;;5071962;28;20506;-30
2022/12/08 01:46:34;;;;;;;7.50;4.43;;;5.50;88.30;;;;;;5071920;28;20104;-29
2022/12/08 01:49:11;;;;;;;6.55;4.78;;;5.60;88.30;;;;;;5072366;28;20496;-28
2022/12/08 01:51:47;;;;;;;7.82;6.07;;;5.60;88.30;;;;;;5072166;28;20036;-27
2022/12/08 01:54:14;;;;;;;6.53;5.32;;;5.60;88.20;;;;;;5071793;28;20032;-28
2022/12/08 01:56:42;;;;;;;6.57;5.32;;;5.60;88.30;;;;;;5071757;28;20071;-28
2022/12/08 01:59:09;;;;;;;6.70;5.45;;;5.60;88.30;;;;;;5072061;28;20446;-36
2022/12/08 02:01:34;;;;;;;8.15;5.95;;;5.60;88.40;;;;;;5071802;28;20033;-27
2022/12/08 02:04:03;;;;;;;8.50;5.93;;;5.60;88.30;;;;;;5071661;28;20538;-27
2022/12/08 02:06:32;;;;;;;8.25;6.38;;;5.60;88.30;;;;;;5071917;28;20476;-28
2022/12/08 02:09:00;;;;;;;7.90;6.50;;;5.60;88.30;;;;;;5071810;28;20059;-27
2022/12/08 02:11:25;;;;;;;9.30;6.35;;;5.60;88.30;;;;;;5071626;28;20077;-28
2022/12/08 02:13:53;;;;;;;9.82;6.10;;;5.70;88.40;;;;;;5071626;28;20028;-30
2022/12/08 02:16:43;;;;;;;10.35;6.35;;;5.70;88.40;;;;;;5071447;28;20078;-29
2022/12/08 02:19:18;;;;;;;9.48;6.47;;;5.70;88.40;;;;;;5071630;28;20036;-30
2022/12/08 02:21:47;;;;;;;8.07;6.68;;;5.70;88.40;;;;;;5071539;28;20032;-27
2022/12/08 02:24:25;;;;;;;9.75;6.93;;;5.70;88.30;;;;;;5071559;28;20067;-31
2022/12/08 02:27:31;;;;;;;10.30;7.32;;;5.70;88.30;;;;;;5071360;28;20384;-29
2022/12/08 02:30:18;;;;;;;9.85;7.68;;;5.70;88.40;;;;;;5071373;28;20108;-28
2022/12/08 02:32:50;;;;;;;11.05;7.78;;;5.60;88.40;;;;;;5071240;28;20064;-27
2022/12/08 02:35:38;;;;;;;9.00;7.00;;;5.60;88.40;;;;;;5071232;28;20115;-33
2022/12/08 02:38:33;;;;;;;9.93;7.53;;;5.60;88.60;;;;;;5071281;28;20033;-26
2022/12/08 02:41:13;;;;;;;10.23;7.70;;;5.60;88.60;;;;;;5071468;28;20024;-27
2022/12/08 02:43:44;;;;;;;8.95;6.90;;;5.50;88.60;;;;;;5071202;28;20077;-31
2022/12/08 02:46:22;;;;;;;9.73;6.63;;;5.50;88.70;;;;;;5071171;28;20174;-27
2022/12/08 02:48:50;;;;;;;10.80;7.80;;;5.50;88.70;;;;;;5071350;28;20474;-27
2022/12/08 02:51:15;;;;;;;11.32;8.43;;;5.50;88.70;;;;;;5071122;28;20032;-26
2022/12/08 02:53:42;;;;;;;10.07;8.15;;;5.50;88.80;;;;;;5071099;28;20552;-28
2022/12/08 02:56:18;;;;;;;9.77;7.85;;;5.50;89.00;;;;;;5071018;28;20047;-27
2022/12/08 02:59:02;;;;;;;11.00;7.80;;;5.50;89.00;;;;;;5071049;28;20024;-31
2022/12/08 03:01:45;;;;;;;9.50;7.10;;;5.50;89.10;;;;;;5071145;28;20024;-28
2022/12/08 03:04:19;;;;;;;9.05;7.30;;;5.50;89.20;;;;;;5070918;28;20078;-27
2022/12/08 03:06:56;;;;;;;10.05;7.93;;;5.50;89.20;;;;;;5071041;28;20051;-28
2022/12/08 03:09:36;;;;;;;10.38;7.60;;;5.50;89.20;;;;;;5071001;28;20016;-27
2022/12/08 03:12:25;;;;;;;8.80;6.72;;;5.50;89.30;;;;;;5071361;28;20081;-28
2022/12/08 03:14:53;;;;;;;8.32;6.25;;;5.50;89.30;;;;;;5052934;28;20036;-27
2022/12/08 03:17:22;;;;;;;8.20;6.55;;;5.50;89.30;;;;;;5070908;28;20049;-31
2022/12/08 03:19:48;;;;;;;7.93;5.68;;;5.50;89.30;;;;;;5071354;28;20025;-26
2022/12/08 03:22:18;;;;;;;8.27;5.50;;;5.50;89.30;;;;;;5071197;28;20023;-28
2022/12/08 03:24:45;;;;;;;6.68;5.40;;;5.60;89.40;;;;;;5071030;28;20478;-27
2022/12/08 03:27:32;;;;;;;7.47;6.10;;;5.60;89.30;;;;;;5070789;28;20025;-27
2022/12/08 03:29:59;;;;;;;7.25;5.70;;;5.60;89.30;;;;;;5071282;28;20477;-28
2022/12/08 03:32:37;;;;;;;7.07;5.85;;;5.60;89.30;;;;;;5070777;28;20594;-30
2022/12/08 03:35:09;;;;;;;9.35;6.45;;;5.60;89.20;;;;;;5071142;28;20032;-28
2022/12/08 03:37:37;;;;;;;11.32;6.35;;;5.60;89.20;;;;;;5071016;28;20032;-28
2022/12/08 03:40:05;;;;;;;9.13;6.00;;;5.60;89.30;;;;;;5070958;28;20031;-29
2022/12/08 03:42:30;;;;;;;9.13;6.32;;;5.60;89.40;;;;;;5070658;28;20104;-34
2022/12/08 03:44:56;;;;;;;7.85;6.22;;;5.50;89.30;;;;;;5070898;28;20107;-28
2022/12/08 03:47:21;;;;;;;8.82;6.45;;;5.50;89.40;;;;;;5070751;28;20063;-32
2022/12/08 03:49:47;;;;;;;8.10;5.97;;;5.50;89.50;;;;;;5071079;28;20013;-28
2022/12/08 03:52:14;;;;;;;7.05;6.07;;;5.50;89.40;;;;;;5074307;28;20415;-31
2022/12/08 03:54:39;;;;;;;8.20;6.10;;;5.50;89.50;;;;;;5074224;28;20348;-27
2022/12/08 03:57:05;;;;;;;8.25;5.97;;;5.40;89.50;;;;;;5074265;28;20024;-28
2022/12/08 03:59:30;;;;;;;7.07;4.90;;;5.40;89.60;;;;;;5074206;28;20094;-27
2022/12/08 04:01:56;;;;;;;5.65;4.32;;;5.40;89.60;;;;;;5073973;28;20028;-27
2022/12/08 04:04:21;;;;;;;6.07;4.93;;;5.40;89.80;;;;;;5074155;28;20027;-28
2022/12/08 04:06:47;;;;;;;7.22;4.80;;;5.40;89.70;;;;;;5073888;28;20066;-27
2022/12/08 04:09:12;;;;;;;5.50;4.03;;;5.50;89.80;;;;;;5074245;28;20024;-30
2022/12/08 04:11:38;;;;;;;5.72;4.25;;;5.40;89.70;;;;;;5073864;28;20025;-29
2022/12/08 04:14:03;;;;;;;6.97;4.10;;;5.40;89.60;;;;;;5073851;28;20028;-35
2022/12/08 04:16:29;;;;;;;4.90;3.80;;;5.50;89.80;;;;;;5073822;28;20025;-27
2022/12/08 04:18:55;;;;;;;4.35;3.38;;;5.40;89.70;;;;;;5074116;28;20028;-27
2022/12/08 04:21:20;;;;;;;4.90;2.80;;;5.40;89.70;;;;;;5073728;28;20169;-28
2022/12/08 04:23:46;;;;;;;4.50;2.90;;;5.40;89.80;;;;;;5073613;28;20036;-28
2022/12/08 04:26:14;;;;;;;3.35;2.70;;;5.40;89.70;;;;;;5073574;28;20024;-33
2022/12/08 04:28:40;;;;;;;2.78;2.20;;;5.40;89.60;;;;;;5073706;28;20021;-29
2022/12/08 04:31:06;;;;;;;3.67;2.30;;;5.40;89.60;;;;;;5073495;28;20028;-30
2022/12/08 04:33:32;;;;;;;3.35;2.40;;;5.40;89.70;;;;;;5073821;28;20028;-31
2022/12/08 04:35:57;;;;;;;3.15;2.40;;;5.40;89.60;;;;;;5073490;28;20016;-27
2022/12/08 04:38:23;;;;;;;3.55;2.10;;;5.40;89.60;;;;;;5073373;28;20052;-28
2022/12/08 04:40:48;;;;;;;3.20;2.15;;;5.40;89.60;;;;;;5073428;28;20021;-27
2022/12/08 04:43:14;;;;;;;1.70;1.60;;;5.30;89.60;;;;;;5073255;28;20020;-28
2022/12/08 04:45:40;;;;;;;2.13;1.60;;;5.30;89.50;;;;;;5073195;28;20071;-27
2022/12/08 04:48:06;;;;;;;1.90;1.30;;;5.30;89.50;;;;;;5055028;28;20103;-27
2022/12/08 04:50:32;;;;;;;1.67;1.38;;;5.20;89.50;;;;;;5073089;28;20055;-27
2022/12/08 04:52:57;;;;;;;2.42;1.40;;;5.20;89.60;;;;;;5073057;28;20017;-28
2022/12/08 04:55:23;;;;;;;1.25;1.13;;;5.20;89.70;;;;;;5072997;28;20503;-31
2022/12/08 04:57:49;;;;;;;2.75;1.77;;;5.20;89.70;;;;;;5072960;28;20020;-28
2022/12/08 05:00:15;;;;;;;2.88;1.83;;;5.20;89.80;;;;;;5054907;28;20039;-36
2022/12/08 05:02:41;;;;;;;2.95;2.30;;;5.20;89.80;;;;;;5053758;28;20066;-28
2022/12/08 05:05:07;;;;;;;2.85;2.30;;;5.20;89.80;;;;;;5072665;28;20109;-27
2022/12/08 05:07:32;;;;;;;2.83;2.63;;;5.20;89.80;;;;;;5072928;28;20021;-29
2022/12/08 05:09:58;;;;;;;3.53;2.80;;;5.30;89.90;;;;;;5072829;28;20103;-30
2022/12/08 05:12:23;;;;;;;3.63;2.78;;;5.30;89.90;;;;;;5072558;28;20452;-29
2022/12/08 05:14:49;;;;;;;4.35;3.42;;;5.20;89.90;;;;;;5072772;28;20436;-33
2022/12/08 05:17:16;;;;;;;3.45;3.00;;;5.30;90.00;;;;;;5072358;28;20567;-28
2022/12/08 05:19:42;;;;;;;3.63;3.30;;;5.30;89.90;;;;;;5072561;28;20118;-29
2022/12/08 05:22:07;;;;;;;3.63;3.33;;;5.30;89.90;;;;;;5072481;28;20095;-27
2022/12/08 05:24:33;;;;;;;4.20;3.78;;;5.30;89.90;;;;;;5072425;28;20029;-28
2022/12/08 05:26:58;;;;;;;3.70;3.40;;;5.30;89.90;;;;;;5072321;28;20028;-28
2022/12/08 05:29:24;;;;;;;4.10;3.65;;;5.30;90.00;;;;;;5072413;28;20444;-29
2022/12/08 05:31:49;;;;;;;4.53;3.83;;;5.30;89.90;;;;;;5072607;28;20020;-32
2022/12/08 05:34:15;;;;;;;5.05;3.65;;;5.30;90.00;;;;;;5054145;28;20127;-28
2022/12/08 05:36:40;;;;;;;5.32;3.72;;;5.30;90.00;;;;;;5072420;28;20052;-31
2022/12/08 05:39:06;;;;;;;4.78;3.63;;;5.40;90.00;;;;;;5071997;28;20043;-27
2022/12/08 05:41:32;;;;;;;5.40;4.53;;;5.30;90.00;;;;;;5072147;28;20453;-38
2022/12/08 05:43:57;;;;;;;6.97;4.55;;;5.40;90.00;;;;;;5071922;28;20028;-26
2022/12/08 05:46:23;;;;;;;5.35;4.57;;;5.30;90.00;;;;;;5072002;28;20123;-30
2022/12/08 05:48:49;;;;;;;6.53;3.85;;;5.30;90.00;;;;;;5071998;28;20025;-27
2022/12/08 05:51:20;;;;;;;5.65;3.60;;;5.30;90.00;;;;;;5071769;28;20085;-32
2022/12/08 05:53:46;;;;;;;5.18;3.45;;;5.30;90.00;;;;;;5071849;28;20028;-27
2022/12/08 05:56:12;;;;;;;6.97;3.15;;;5.30;90.10;;;;;;5071841;28;20235;-29
2022/12/08 05:58:38;;;;;;;4.53;2.97;;;5.30;90.00;;;;;;5071775;28;20103;-27
2022/12/08 06:01:04;;;;;;;2.85;2.60;;;5.30;90.00;;;;;;5071670;28;20031;-27
2022/12/08 06:03:30;;;;;;;3.72;2.60;;;5.30;90.00;;;;;;5071406;28;20021;-27
2022/12/08 06:05:55;;;;;;;4.05;2.25;;;5.30;90.00;;;;;;5071118;28;20495;-28
2022/12/08 06:08:21;;;;;;;2.78;1.90;;;5.20;90.00;;;;;;5071243;28;20020;-31
2022/12/08 06:10:46;;;;;;;3.38;1.92;;;5.20;90.00;;;;;;5071173;28;20020;-31
2022/12/08 06:13:13;;;;;;;2.15;1.65;;;5.10;90.00;;;;;;5071040;28;20444;-30
2022/12/08 06:15:39;;;;;;;1.50;1.20;;;5.10;90.00;;;;;;5053124;28;20379;-29
2022/12/08 06:18:05;;;;;;;1.63;1.27;;;5.10;90.00;;;;;;5071528;28;20048;-28
2022/12/08 06:20:31;;;;;;;1.25;0.98;;;5.10;90.00;;;;;;5053653;28;20021;-26
2022/12/08 06:22:57;;;;;;;1.50;1.10;;;5.00;90.00;;;;;;5071548;28;20032;-26
2022/12/08 06:25:23;;;;;;;0.95;0.93;;;5.00;90.00;;;;;;5071632;28;20021;-31
2022/12/08 06:27:49;;;;;;;0.93;0.90;;;5.00;90.00;;;;;;5071408;28;20025;-27
2022/12/08 06:30:15;;;;;;;1.05;0.82;;;5.00;90.00;;;;;;5071485;28;20071;-28
2022/12/08 06:32:41;;;;;;;1.38;0.90;;;5.00;90.00;;;;;;5071382;28;20423;-41
2022/12/08 06:35:08;;;;;;;1.05;0.95;;;5.00;90.00;;;;;;5071441;28;20027;-27
2022/12/08 06:37:33;;;;;;;2.72;1.10;;;5.00;90.00;;;;;;5071278;28;20058;-32
2022/12/08 06:39:59;;;;;;;2.17;0.85;;;5.00;90.00;;;;;;5071697;28;20051;-27
2022/12/08 06:42:43;;;;;;;0.80;0.80;;;4.90;90.00;;;;;;5073740;28;20029;-28
2022/12/08 06:45:13;;;;;;;2.55;0.70;;;4.90;90.00;;;;;;5071931;28;20082;-42
2022/12/08 06:47:39;;;;;;;1.00;0.90;;;4.80;90.00;;;;;;5071967;28;20028;-26
2022/12/08 06:50:06;;;;;;;1.15;0.70;;;4.70;90.00;;;;;;5071835;28;20460;-30
2022/12/08 06:52:31;;;;;;;0.82;0.60;;;4.70;90.00;;;;;;5072331;28;20029;-38
2022/12/08 06:54:57;;;;;;;0.80;0.70;;;4.70;90.10;;;;;;5071259;28;20056;-34
2022/12/08 06:57:23;;;;;;;1.90;0.90;;;4.60;90.10;;;;;;5074513;28;20044;-30
2022/12/08 06:59:49;;;;;;;1.35;0.73;;;4.60;90.10;;;;;;5056266;28;20059;-28
2022/12/08 07:02:14;;;;;;;1.08;0.70;;;4.60;90.10;;;;;;5074387;28;20475;-27
2022/12/08 07:04:41;;;;;;;1.02;0.70;;;4.60;90.10;;;;;;5072749;28;20029;-32
2022/12/08 07:07:06;;;;;;;0.80;0.80;;;4.60;90.10;;;;;;5071839;28;20020;-39
2022/12/08 07:09:32;;;;;;;2.25;1.08;;;4.60;90.10;;;;;;5071172;28;20457;-32
2022/12/08 07:11:57;;;;;;;1.05;0.90;;;4.60;90.10;;;;;;5071194;28;20028;-34
2022/12/08 07:14:23;;;;;;;2.10;1.00;;;4.60;90.10;;;;;;5076093;28;20036;-37
2022/12/08 07:16:52;;;;;;;1.40;1.20;;;4.60;90.10;;;;;;5070771;28;20045;-39
2022/12/08 07:19:17;;;;;;;1.48;1.13;;;4.60;90.10;;;;;;5071098;28;20061;-36
2022/12/08 07:21:43;;;;;;;3.50;1.75;;;4.70;90.10;;;;;;5052841;28;20119;-37
2022/12/08 07:24:10;;;;;;;1.60;1.20;;;4.70;90.10;;;;;;5070964;28;20036;-40
2022/12/08 07:26:36;;;;;;;2.00;1.40;;;4.70;90.20;;;;;;5074067;28;20082;-38
2022/12/08 07:29:01;;;;;;;4.07;2.38;;;4.70;90.20;;;;;;5075109;28;20021;-32
2022/12/08 07:31:27;;;;;;;2.95;2.00;;;4.70;90.10;;;;;;5075052;28;20028;-32
2022/12/08 07:33:55;;;;;;;2.00;1.77;;;4.80;90.20;;;;;;5076671;28;20103;-32
2022/12/08 07:36:23;;;;;;;2.30;1.88;;;4.80;90.10;;;;;;5081695;28;20078;-39
2022/12/08 07:38:49;;;;;;;1.50;1.40;;;4.80;90.10;;;;;;5074455;28;20036;-43
2022/12/08 07:41:17;;;;;;;2.08;1.30;;;4.90;90.10;;;;;;5074684;28;20040;-42
2022/12/08 07:43:43;;;;;;;2.47;1.55;;;4.80;90.10;;;;;;5079112;28;20308;-28
2022/12/08 07:46:17;;;;;;;1.88;1.58;;;4.90;90.10;;;;;;5074364;28;20024;-27
2022/12/08 07:48:43;;;;;;;1.75;1.58;;;4.90;90.10;;;;;;5074100;28;20522;-28
2022/12/08 07:51:11;;;;;;;2.05;1.60;;;4.90;90.10;;;;;;5074460;28;20032;-28
2022/12/08 07:53:39;;;;;;;1.65;1.30;;;4.90;90.10;;;;;;5074433;28;20020;-29
2022/12/08 07:56:06;;;;;;;1.73;1.33;;;4.90;90.10;;;;;;5074213;28;20446;-31
2022/12/08 07:58:31;;;;;;;1.35;1.20;;;4.90;90.10;;;;;;5074085;28;20051;-30
2022/12/08 08:00:57;;;;;;;2.28;1.60;;;4.90;90.10;;;;;;5074085;28;20450;-28
2022/12/08 08:03:22;;;;;;;1.90;1.52;;;4.90;90.10;;;;;;5073693;28;20024;-29
2022/12/08 08:05:48;;;;;;;1.65;1.50;;;4.90;90.10;;;;;;5074150;28;20085;-31
2022/12/08 08:08:15;;;;;;;10.23;1.85;;;5.00;90.10;;;;;;5073987;28;20104;-33
2022/12/08 08:10:40;;;;;;;1.65;1.50;;;4.90;90.00;;;;;;5073951;28;20060;-30
2022/12/08 08:13:07;;;;;;;1.60;1.42;;;4.90;90.00;;;;;;5073559;28;20056;-29
2022/12/08 08:15:33;;;;;;;1.50;1.40;;;4.90;90.00;;;;;;5073692;28;20063;-32
2022/12/08 08:17:58;;;;;;;1.80;1.55;;;4.90;90.10;;;;;;5073536;28;20087;-28
2022/12/08 08:20:26;;;;;;;1.80;1.40;;;4.90;90.10;;;;;;5073691;28;20422;-30
2022/12/08 08:22:52;;;;;;;2.10;1.80;;;4.90;90.10;;;;;;5073568;28;20099;-28
2022/12/08 08:25:21;;;;;;;1.60;1.50;;;5.00;90.20;;;;;;5073528;28;20115;-27
2022/12/08 08:27:47;;;;;;;1.88;1.60;;;5.00;90.10;;;;;;5073418;28;20024;-30
2022/12/08 08:30:13;;;;;;;2.47;1.70;;;5.00;90.00;;;;;;5073735;28;20025;-29
2022/12/08 08:32:39;;;;;;;1.83;1.70;;;5.00;90.00;;;;;;5073328;28;20027;-28
2022/12/08 08:35:05;;;;;;;1.98;1.70;;;5.00;90.00;;;;;;5073329;28;20107;-28
2022/12/08 08:37:30;;;;;;;2.17;1.98;;;5.00;90.00;;;;;;5073136;28;20033;-29
2022/12/08 08:39:56;;;;;;;2.13;1.92;;;5.00;90.00;;;;;;5073180;28;20388;-28
2022/12/08 08:42:22;;;;;;;2.30;2.10;;;5.00;90.00;;;;;;5073488;28;20225;-30
2022/12/08 08:44:47;;;;;;;4.15;2.45;;;5.00;90.00;;;;;;5073145;28;20075;-30
2022/12/08 08:47:13;;;;;;;2.00;1.80;;;5.00;90.00;;;;;;5072978;28;20494;-27
2022/12/08 08:49:38;;;;;;;2.10;1.60;;;5.00;90.00;;;;;;5073047;28;20066;-29
2022/12/08 08:52:05;;;;;;;3.58;1.92;;;5.00;90.00;;;;;;5073474;28;20257;-30
2022/12/08 08:54:31;;;;;;;3.47;1.90;;;5.10;90.00;;;;;;5073415;28;20032;-32
2022/12/08 08:56:58;;;;;;;4.40;2.20;;;5.00;90.00;;;;;;5072875;28;20058;-28
2022/12/08 08:59:24;;;;;;;3.97;2.35;;;5.00;89.90;;;;;;5072959;28;20035;-28
2022/12/08 09:01:50;;;;;;;1.70;1.52;;;5.00;90.00;;;;;;5072833;28;20116;-27
2022/12/08 09:04:15;;;;;;;2.05;1.63;;;5.00;90.00;;;;;;5072694;28;20111;-28
2022/12/08 09:06:42;;;;;;;1.83;1.40;;;5.00;89.80;;;;;;5072805;28;20025;-29
2022/12/08 09:09:08;;;;;;;1.58;1.10;;;5.10;89.90;;;;;;5072985;28;20090;-31
2022/12/08 09:11:34;;;;;;;1.60;1.27;;;5.00;89.80;;;;;;5072765;28;20020;-31
2022/12/08 09:14:00;;;;;;;1.52;1.25;;;5.00;89.80;;;;;;5072899;28;20032;-27
2022/12/08 09:16:25;;;;;;;1.65;1.33;;;5.10;89.80;;;;;;5072726;28;20469;-29
2022/12/08 09:18:51;;;;;;;1.75;1.30;;;5.10;89.80;;;;;;5072907;28;20037;-28
2022/12/08 09:21:21;;;;;;;2.17;1.38;;;5.10;89.60;;;;;;5072744;28;20052;-29
2022/12/08 09:23:50;;;;;;;4.20;1.60;;;5.10;89.60;;;;;;5072619;28;20025;-27
2022/12/08 09:26:16;;;;;;;2.20;1.50;;;5.10;89.50;;;;;;5072435;28;20033;-28
2022/12/08 09:28:45;;;;;;;1.65;1.30;;;5.00;89.50;;;;;;5072349;28;20104;-44
2022/12/08 09:31:12;;;;;;;2.95;1.70;;;5.00;89.60;;;;;;5072316;28;20329;-44
2022/12/08 09:33:38;;;;;;;3.45;1.90;;;5.00;89.60;;;;;;5072186;28;20082;-43
2022/12/08 09:36:04;;;;;;;3.55;2.00;;;5.00;89.40;;;;;;5072339;28;20029;-42
2022/12/08 09:38:30;;;;;;;2.63;2.20;;;5.00;89.40;;;;;;5072474;28;20021;-44
2022/12/08 09:40:56;;;;;;;2.25;1.80;;;5.00;89.40;;;;;;5072636;28;20023;-42
2022/12/08 09:43:30;;;;;;;2.55;2.00;;;5.00;89.40;;;;;;5072405;28;20024;-44
2022/12/08 09:45:56;;;;;;;2.00;1.80;;;5.00;89.50;;;;;;5072204;28;20024;-44
2022/12/08 09:48:28;;;;;;;2.90;2.42;;;5.00;89.40;;;;;;5071894;28;20028;-44
2022/12/08 09:50:55;;;;;;;2.92;2.10;;;5.00;89.40;;;;;;5072213;28;20021;-39
2022/12/08 09:53:31;;;;;;;2.60;2.13;;;5.00;89.40;;;;;;5072378;28;20380;-47
2022/12/08 09:56:01;;;;;;;2.60;2.20;;;5.00;89.40;;;;;;5072093;28;20024;-44
2022/12/08 09:58:47;;;;;;;2.33;2.10;;;5.00;89.40;;;;;;5072281;28;20099;-43
2022/12/08 10:01:13;;;;;;;3.38;2.15;;;5.10;89.40;;;;;;5072755;28;20024;-43
2022/12/08 10:03:40;;;;;;;3.65;2.45;;;5.10;89.30;;;;;;5072054;28;20090;-45
2022/12/08 10:06:39;;;;;;;2.83;2.40;;;5.00;89.20;;;;;;5071965;28;20043;-34
2022/12/08 10:09:34;;;;;;;4.07;2.10;;;5.00;89.30;;;;;;5071986;28;20021;-35
2022/12/08 10:12:23;;;;;;;3.70;2.28;;;5.00;89.30;;;;;;5072050;28;20108;-34
2022/12/08 10:14:56;;;;;;;2.60;1.92;;;5.00;89.20;;;;;;5054036;28;20107;-34
2022/12/08 10:17:33;;;;;;;;;;;5.00;89.20;;;;;;5072257;28;20071;-35
2022/12/08 10:20:13;;;;;;;2.33;2.13;;;5.00;89.20;;;;;;5071961;28;19905;-34
2022/12/08 10:22:39;;;;;;;2.47;2.22;;;4.90;89.20;;;;;;5071807;28;20031;-35
2022/12/08 10:25:14;;;;;;;2.10;1.90;;;4.90;89.20;;;;;;5071746;28;20028;-34
2022/12/08 10:27:39;;;;;;;3.70;2.08;;;4.90;89.20;;;;;;5071757;28;20021;-34
2022/12/08 10:30:16;;;;;;;3.22;2.38;;;4.90;89.20;;;;;;5071666;28;20035;-34
2022/12/08 10:32:45;;;;;;;2.40;2.20;;;4.90;89.20;;;;;;5071841;28;20013;-35
2022/12/08 10:35:15;;;;;;;2.30;2.10;;;5.00;89.40;;;;;;5071840;28;20476;-34
2022/12/08 10:37:58;;;;;;;2.45;2.10;;;5.10;89.40;;;;;;5071779;28;20079;-34
2022/12/08 10:40:27;;;;;;;2.83;2.00;;;5.10;89.30;;;;;;5071755;28;20052;-34
2022/12/08 10:42:57;;;;;;;2.97;1.52;;;5.20;89.20;;;;;;5071762;28;20025;-37
2022/12/08 10:45:36;;;;;;;2.38;1.90;;;5.20;89.20;;;;;;5071593;28;20046;-33
2022/12/08 10:48:05;;;;;;;2.17;1.70;;;5.20;89.00;;;;;;5053729;28;20017;-34
2022/12/08 10:50:46;;;;;;;2.63;1.40;;;5.20;89.00;;;;;;5053596;28;20078;-35
2022/12/08 10:53:18;;;;;;;1.30;1.20;;;5.20;89.50;;;;;;5071477;28;20503;-35
2022/12/08 10:55:47;;;;;;;1.60;1.50;;;5.20;89.00;;;;;;5071453;28;20024;-32
2022/12/08 10:58:28;;;;;;;1.73;1.27;;;5.20;89.10;;;;;;5071425;28;20051;-34
2022/12/08 11:01:02;;;;;;;1.70;1.20;;;5.30;89.10;;;;;;5072913;28;20024;-32
2022/12/08 11:03:31;;;;;;;1.02;1.02;;;5.30;89.00;;;;;;5075403;28;20020;-33
2022/12/08 11:05:59;;;;;;;1.30;1.13;;;5.30;89.00;;;;;;5075379;28;20091;-34
2022/12/08 11:08:26;;;;;;;1.48;1.02;;;5.30;89.00;;;;;;5075369;28;20091;-33
2022/12/08 11:10:52;;;;;;;1.10;1.00;;;5.40;89.00;;;;;;5075524;28;20051;-35
2022/12/08 11:13:25;;;;;;;1.10;1.00;;;5.40;88.90;;;;;;5057226;28;20016;-35
2022/12/08 11:15:52;;;;;;;0.90;0.80;;;5.40;88.80;;;;;;5075104;28;20484;-33
2022/12/08 11:18:39;;;;;;;1.33;1.23;;;5.40;88.80;;;;;;5074817;28;20408;-34
2022/12/08 11:21:10;;;;;;;2.70;1.35;;;5.40;88.70;;;;;;5075285;28;20317;-35
2022/12/08 11:23:36;;;;;;;2.08;1.15;;;5.40;88.50;;;;;;5075099;28;20036;-34
2022/12/08 11:26:11;;;;;;;1.40;1.20;;;5.40;88.70;;;;;;5075281;28;20044;-35
2022/12/08 11:28:38;;;;;;;1.35;1.20;;;5.40;88.80;;;;;;5074792;28;20476;-35
2022/12/08 11:31:29;;;;;;;1.50;1.30;;;5.40;88.70;;;;;;5075530;28;20431;-33
2022/12/08 11:33:55;;;;;;;2.40;1.67;;;5.40;88.70;;;;;;5075012;28;20055;-34
2022/12/08 11:36:24;;;;;;;1.75;1.65;;;5.50;88.60;;;;;;5074673;28;20039;-35
2022/12/08 11:38:58;;;;;;;4.03;2.00;;;5.50;88.60;;;;;;5074577;28;20063;-35
2022/12/08 11:41:34;;;;;;;2.20;2.00;;;5.50;88.40;;;;;;5074826;28;20086;-34
2022/12/08 11:44:09;;;;;;;2.35;1.80;;;5.50;88.50;;;;;;5074486;28;20142;-35
2022/12/08 11:46:58;;;;;;;2.65;2.10;;;5.50;88.50;;;;;;5074653;28;20056;-34
2022/12/08 11:49:36;;;;;;;3.05;2.05;;;5.50;88.50;;;;;;5074619;28;20476;-35
2022/12/08 11:52:05;;;;;;;2.05;1.83;;;5.50;88.40;;;;;;5074353;28;20082;-36
2022/12/08 11:54:40;;;;;;;2.00;1.75;;;5.50;88.30;;;;;;5074335;28;20039;-35
2022/12/08 11:57:12;;;;;;;2.10;1.70;;;5.40;88.20;;;;;;5074112;28;20039;-34
2022/12/08 11:59:43;;;;;;;2.47;1.88;;;5.40;88.20;;;;;;5074216;28;20103;-35
2022/12/08 12:02:27;;;;;;;1.88;1.77;;;5.40;88.20;;;;;;5074390;28;20618;-35
2022/12/08 12:05:22;;;;;;;2.28;2.08;;;5.40;88.10;;;;;;5073937;28;20033;-31
2022/12/08 12:07:53;;;;;;;3.38;2.10;;;5.40;88.20;;;;;;5073790;28;20029;-34
2022/12/08 12:10:46;;;;;;;2.33;2.05;;;5.30;88.10;;;;;;5055939;28;20109;-35
2022/12/08 12:13:40;;;;;;;1.90;1.70;;;5.40;88.20;;;;;;5036640;28;20496;-35
2022/12/08 12:16:39;;;;;;;2.30;1.75;;;5.40;88.20;;;;;;5073847;28;20107;-34
2022/12/08 12:19:15;;;;;;;2.85;1.80;;;5.40;88.10;;;;;;5062880;28;20052;-35
2022/12/08 12:21:49;;;;;;;1.75;1.55;;;5.30;88.10;;;;;;5073757;28;20024;-40
2022/12/08 12:24:21;;;;;;;1.58;1.42;;;5.40;88.10;;;;;;5073767;28;20071;-35
2022/12/08 12:27:06;;;;;;;1.55;1.40;;;5.30;88.10;;;;;;5073855;28;20052;-37
2022/12/08 12:29:35;;;;;;;2.10;1.20;;;5.40;88.10;;;;;;5073888;28;20021;-35
2022/12/08 12:32:06;;;;;;;2.03;1.25;;;5.40;88.00;;;;;;5073516;28;20078;-35
2022/12/08 12:34:36;;;;;;;1.88;1.38;;;5.40;87.90;;;;;;5073564;28;20060;-35
2022/12/08 12:37:11;;;;;;;2.30;1.33;;;5.40;87.90;;;;;;5073598;28;20025;-35
2022/12/08 12:39:52;;;;;;;1.30;1.20;;;5.40;87.90;;;;;;5073671;28;20028;-34
2022/12/08 12:42:36;;;;;;;2.10;1.30;;;5.40;87.80;;;;;;5073589;28;20036;-35
2022/12/08 12:45:18;;;;;;;1.55;1.27;;;5.40;87.90;;;;;;5073487;28;20103;-35
2022/12/08 12:47:57;;;;;;;1.85;0.93;;;5.40;87.70;;;;;;5055886;28;20112;-35
2022/12/08 12:50:47;;;;;;;1.35;1.10;;;5.40;87.70;;;;;;5073443;28;20535;-35
2022/12/08 12:53:16;;;;;;;2.47;1.10;;;5.40;87.60;;;;;;5063213;28;20496;-35
2022/12/08 12:55:44;;;;;;;2.45;1.25;;;5.40;87.70;;;;;;5055261;28;20484;-35
2022/12/08 12:58:31;;;;;;;1.42;1.10;;;5.30;87.70;;;;;;5073189;28;20112;-34
2022/12/08 13:01:11;;;;;;;1.23;1.10;;;5.40;87.70;;;;;;5073029;28;20029;-35
2022/12/08 13:03:40;;;;;;;0.95;0.90;;;5.40;87.70;;;;;;5073123;28;20474;-34
2022/12/08 13:06:06;;;;;;;2.83;0.85;;;5.40;87.70;;;;;;5072918;28;20499;-33
2022/12/08 13:08:32;;;;;;;0.60;0.60;;;5.40;87.60;;;;;;5073374;28;20024;-35
2022/12/08 13:11:08;;;;;;;2.13;0.90;;;5.40;87.60;;;;;;5072944;28;20032;-35
2022/12/08 13:13:35;;;;;;;1.65;0.90;;;5.50;87.60;;;;;;5072841;28;20099;-35
2022/12/08 13:16:10;;;;;;;1.15;0.75;;;5.50;87.50;;;;;;5054823;28;20033;-35